sensor_id;sensor_type;location;lat;lon;timestamp;P1;durP1;ratioP1;P2;durP2;ratioP2
1164;SDS011;571;50.930;6.926;2023-07-31T03:51:41;8.20;;;3.77;;
1164;SDS011;571;50.930;6.926;2023-07-31T04:11:09;6.60;;;4.03;;
1164;SDS011;571;50.930;6.926;2023-07-31T06:11:55;11.53;;;4.67;;
1164;SDS011;571;50.930;6.926;2023-07-31T06:15:30;6.40;;;4.90;;
1164;SDS011;571;50.930;6.926;2023-07-31T06:18:52;7.20;;;4.13;;
1164;SDS011;571;50.930;6.926;2023-07-31T06:56:13;7.37;;;4.90;;
1164;SDS011;571;50.930;6.926;2023-07-31T07:13:08;4.87;;;3.33;;
1164;SDS011;571;50.930;6.926;2023-07-31T07:15:47;4.83;;;3.10;;
1164;SDS011;571;50.930;6.926;2023-07-31T07:22:19;6.20;;;3.70;;
1164;SDS011;571;50.930;6.926;2023-07-31T07:25:19;6.30;;;3.90;;
1164;SDS011;571;50.930;6.926;2023-07-31T07:28:27;5.70;;;4.47;;
1164;SDS011;571;50.930;6.926;2023-07-31T07:31:47;4.60;;;3.73;;
1164;SDS011;571;50.930;6.926;2023-07-31T08:02:16;12.53;;;4.10;;
1164;SDS011;571;50.930;6.926;2023-07-31T08:04:56;4.40;;;3.23;;
1164;SDS011;571;50.930;6.926;2023-07-31T08:11:26;4.83;;;2.73;;
1164;SDS011;571;50.930;6.926;2023-07-31T08:14:23;23.07;;;3.93;;
1164;SDS011;571;50.930;6.926;2023-07-31T08:22:26;4.70;;;3.23;;
1164;SDS011;571;50.930;6.926;2023-07-31T08:25:25;3.80;;;2.87;;
1164;SDS011;571;50.930;6.926;2023-07-31T09:26:46;3.50;;;2.47;;
1164;SDS011;571;50.930;6.926;2023-07-31T09:30:03;3.60;;;2.67;;
1164;SDS011;571;50.930;6.926;2023-07-31T10:09:27;4.20;;;2.30;;
1164;SDS011;571;50.930;6.926;2023-07-31T10:14:59;4.83;;;2.70;;
1164;SDS011;571;50.930;6.926;2023-07-31T10:17:51;4.60;;;2.70;;
1164;SDS011;571;50.930;6.926;2023-07-31T10:20:45;3.60;;;2.43;;
1164;SDS011;571;50.930;6.926;2023-07-31T10:23:29;3.63;;;2.20;;
1164;SDS011;571;50.930;6.926;2023-07-31T10:26:14;3.10;;;2.33;;
1164;SDS011;571;50.930;6.926;2023-07-31T10:28:51;2.83;;;2.30;;
1164;SDS011;571;50.930;6.926;2023-07-31T10:35:19;3.07;;;2.37;;
1164;SDS011;571;50.930;6.926;2023-07-31T10:38:12;4.00;;;2.37;;
1164;SDS011;571;50.930;6.926;2023-07-31T10:40:48;3.63;;;2.80;;
1164;SDS011;571;50.930;6.926;2023-07-31T10:46:54;3.50;;;2.43;;
1164;SDS011;571;50.930;6.926;2023-07-31T10:49:46;4.20;;;2.40;;
1164;SDS011;571;50.930;6.926;2023-07-31T10:52:23;4.20;;;2.37;;
1164;SDS011;571;50.930;6.926;2023-07-31T10:56:53;2.83;;;2.30;;
1164;SDS011;571;50.930;6.926;2023-07-31T10:59:06;4.40;;;2.37;;
1164;SDS011;571;50.930;6.926;2023-07-31T11:02:00;3.23;;;1.83;;
1164;SDS011;571;50.930;6.926;2023-07-31T11:05:15;1.67;;;1.57;;
1164;SDS011;571;50.930;6.926;2023-07-31T11:08:30;3.00;;;1.57;;
1164;SDS011;571;50.930;6.926;2023-07-31T11:11:27;2.43;;;1.30;;
1164;SDS011;571;50.930;6.926;2023-07-31T11:17:03;2.43;;;1.70;;
1164;SDS011;571;50.930;6.926;2023-07-31T11:19:50;3.57;;;1.40;;
1164;SDS011;571;50.930;6.926;2023-07-31T11:22:51;2.43;;;1.53;;
1164;SDS011;571;50.930;6.926;2023-07-31T11:28:45;2.80;;;1.23;;
1164;SDS011;571;50.930;6.926;2023-07-31T11:29:21;2.60;;;1.03;;
1164;SDS011;571;50.930;6.926;2023-07-31T11:32:35;2.10;;;1.20;;
1164;SDS011;571;50.930;6.926;2023-07-31T11:45:18;1.70;;;1.10;;
1164;SDS011;571;50.930;6.926;2023-07-31T11:58:49;1.10;;;0.87;;
1164;SDS011;571;50.930;6.926;2023-07-31T12:14:46;1.87;;;1.27;;
1164;SDS011;571;50.930;6.926;2023-07-31T12:20:59;1.83;;;1.10;;
1164;SDS011;571;50.930;6.926;2023-07-31T12:45:57;2.87;;;1.73;;
1164;SDS011;571;50.930;6.926;2023-07-31T12:48:45;1.70;;;1.60;;
1164;SDS011;571;50.930;6.926;2023-07-31T13:01:31;3.13;;;1.70;;
1164;SDS011;571;50.930;6.926;2023-07-31T13:05:19;1.93;;;1.33;;
1164;SDS011;571;50.930;6.926;2023-07-31T13:17:47;2.83;;;2.27;;
1164;SDS011;571;50.930;6.926;2023-07-31T13:20:28;2.50;;;2.30;;
1164;SDS011;571;50.930;6.926;2023-07-31T13:26:50;3.07;;;2.20;;
1164;SDS011;571;50.930;6.926;2023-07-31T13:29:25;3.70;;;2.37;;
1164;SDS011;571;50.930;6.926;2023-07-31T13:38:50;3.10;;;2.37;;
1164;SDS011;571;50.930;6.926;2023-07-31T13:41:31;2.43;;;2.23;;
1164;SDS011;571;50.930;6.926;2023-07-31T13:44:14;2.83;;;1.97;;
1164;SDS011;571;50.930;6.926;2023-07-31T13:46:51;3.73;;;1.87;;
1164;SDS011;571;50.930;6.926;2023-07-31T13:49:33;2.57;;;2.00;;
1164;SDS011;571;50.930;6.926;2023-07-31T13:52:21;3.60;;;2.40;;
1164;SDS011;571;50.930;6.926;2023-07-31T13:55:19;3.03;;;2.63;;
1164;SDS011;571;50.930;6.926;2023-07-31T14:04:49;3.73;;;2.23;;
1164;SDS011;571;50.930;6.926;2023-07-31T14:07:23;3.80;;;2.23;;
1164;SDS011;571;50.930;6.926;2023-07-31T14:10:02;2.50;;;1.80;;
1164;SDS011;571;50.930;6.926;2023-07-31T14:12:53;2.30;;;2.10;;
1164;SDS011;571;50.930;6.926;2023-07-31T14:15:48;2.40;;;1.77;;
1164;SDS011;571;50.930;6.926;2023-07-31T14:18:47;2.83;;;2.27;;
1164;SDS011;571;50.930;6.926;2023-07-31T14:24:30;1.80;;;1.67;;
1164;SDS011;571;50.930;6.926;2023-07-31T14:27:15;3.60;;;2.20;;
1164;SDS011;571;50.930;6.926;2023-07-31T14:30:01;7.00;;;2.90;;
1164;SDS011;571;50.930;6.926;2023-07-31T14:35:30;3.97;;;3.30;;
1164;SDS011;571;50.930;6.926;2023-07-31T14:38:13;2.47;;;2.27;;
1164;SDS011;571;50.930;6.926;2023-07-31T15:06:49;3.20;;;2.90;;
1164;SDS011;571;50.930;6.926;2023-07-31T15:09:33;3.57;;;3.10;;
1164;SDS011;571;50.930;6.926;2023-07-31T15:12:58;4.40;;;3.30;;
1164;SDS011;571;50.930;6.926;2023-07-31T15:15:25;2.87;;;2.30;;
1164;SDS011;571;50.930;6.926;2023-07-31T15:21:47;2.87;;;2.57;;
1164;SDS011;571;50.930;6.926;2023-07-31T15:27:53;4.00;;;3.60;;
1164;SDS011;571;50.930;6.926;2023-07-31T15:31:05;6.10;;;3.67;;
1164;SDS011;571;50.930;6.926;2023-07-31T15:34:14;6.50;;;3.20;;
1164;SDS011;571;50.930;6.926;2023-07-31T15:36:48;3.93;;;3.20;;
1164;SDS011;571;50.930;6.926;2023-07-31T15:39:24;3.50;;;3.20;;
1164;SDS011;571;50.930;6.926;2023-07-31T15:42:02;5.50;;;3.20;;
1164;SDS011;571;50.930;6.926;2023-07-31T15:44:54;4.37;;;3.57;;
1164;SDS011;571;50.930;6.926;2023-07-31T15:50:58;3.43;;;2.90;;
1164;SDS011;571;50.930;6.926;2023-07-31T15:53:44;3.70;;;3.37;;
1164;SDS011;571;50.930;6.926;2023-07-31T15:56:13;3.93;;;3.30;;
1164;SDS011;571;50.930;6.926;2023-07-31T15:58:47;3.80;;;3.20;;
1164;SDS011;571;50.930;6.926;2023-07-31T16:01:29;3.73;;;2.70;;
1164;SDS011;571;50.930;6.926;2023-07-31T16:04:13;3.27;;;2.97;;
1164;SDS011;571;50.930;6.926;2023-07-31T16:06:45;4.30;;;3.00;;
1164;SDS011;571;50.930;6.926;2023-07-31T16:09:47;3.80;;;3.40;;
1164;SDS011;571;50.930;6.926;2023-07-31T16:12:19;4.00;;;3.37;;
1164;SDS011;571;50.930;6.926;2023-07-31T16:20:48;4.50;;;2.90;;
1164;SDS011;571;50.930;6.926;2023-07-31T16:23:33;6.57;;;3.40;;
1164;SDS011;571;50.930;6.926;2023-07-31T16:26:32;3.70;;;3.30;;
1164;SDS011;571;50.930;6.926;2023-07-31T16:32:13;3.63;;;2.60;;
1164;SDS011;571;50.930;6.926;2023-07-31T16:34:46;3.33;;;2.13;;
1164;SDS011;571;50.930;6.926;2023-07-31T16:37:18;2.03;;;1.83;;
1164;SDS011;571;50.930;6.926;2023-07-31T16:39:48;4.53;;;2.30;;
1164;SDS011;571;50.930;6.926;2023-07-31T16:42:18;2.70;;;2.30;;
1164;SDS011;571;50.930;6.926;2023-07-31T16:44:48;3.00;;;2.27;;
1164;SDS011;571;50.930;6.926;2023-07-31T16:47:15;2.37;;;2.03;;
1164;SDS011;571;50.930;6.926;2023-07-31T16:49:46;3.10;;;2.80;;
1164;SDS011;571;50.930;6.926;2023-07-31T16:52:26;3.17;;;2.50;;
1164;SDS011;571;50.930;6.926;2023-07-31T16:54:53;3.43;;;3.13;;
1164;SDS011;571;50.930;6.926;2023-07-31T16:57:51;6.77;;;2.67;;
1164;SDS011;571;50.930;6.926;2023-07-31T17:01:07;3.07;;;2.50;;
1164;SDS011;571;50.930;6.926;2023-07-31T17:04:20;4.33;;;2.87;;
1164;SDS011;571;50.930;6.926;2023-07-31T17:07:03;3.53;;;2.83;;
1164;SDS011;571;50.930;6.926;2023-07-31T17:20:23;3.03;;;2.37;;
1164;SDS011;571;50.930;6.926;2023-07-31T17:29:26;4.23;;;2.50;;
1164;SDS011;571;50.930;6.926;2023-07-31T17:32:08;3.33;;;3.03;;
1164;SDS011;571;50.930;6.926;2023-07-31T17:34:47;4.97;;;2.43;;
1164;SDS011;571;50.930;6.926;2023-07-31T17:37:17;3.70;;;2.87;;
1164;SDS011;571;50.930;6.926;2023-07-31T17:39:53;3.57;;;3.03;;
1164;SDS011;571;50.930;6.926;2023-07-31T17:48:18;3.00;;;2.30;;
1164;SDS011;571;50.930;6.926;2023-07-31T17:50:54;3.53;;;3.20;;
1164;SDS011;571;50.930;6.926;2023-07-31T17:53:26;3.10;;;2.80;;
1164;SDS011;571;50.930;6.926;2023-07-31T18:06:23;3.20;;;2.53;;
1164;SDS011;571;50.930;6.926;2023-07-31T18:09:02;4.10;;;2.70;;
1164;SDS011;571;50.930;6.926;2023-07-31T18:11:47;3.57;;;2.70;;
1164;SDS011;571;50.930;6.926;2023-07-31T18:14:23;4.90;;;2.70;;
1164;SDS011;571;50.930;6.926;2023-07-31T18:17:02;3.07;;;2.10;;
1164;SDS011;571;50.930;6.926;2023-07-31T18:20:18;4.67;;;2.50;;
1164;SDS011;571;50.930;6.926;2023-07-31T18:22:52;3.37;;;2.50;;
1164;SDS011;571;50.930;6.926;2023-07-31T18:28:23;2.23;;;1.80;;
1164;SDS011;571;50.930;6.926;2023-07-31T18:31:07;2.40;;;1.90;;
1164;SDS011;571;50.930;6.926;2023-07-31T18:33:48;3.90;;;1.90;;
1164;SDS011;571;50.930;6.926;2023-07-31T18:36:23;3.80;;;1.83;;
1164;SDS011;571;50.930;6.926;2023-07-31T18:41:52;4.20;;;1.90;;
1164;SDS011;571;50.930;6.926;2023-07-31T18:48:01;4.53;;;1.70;;
1164;SDS011;571;50.930;6.926;2023-07-31T18:50:51;1.83;;;1.60;;
1164;SDS011;571;50.930;6.926;2023-07-31T18:53:47;1.83;;;1.40;;
1164;SDS011;571;50.930;6.926;2023-07-31T18:57:03;3.00;;;1.67;;
1164;SDS011;571;50.930;6.926;2023-07-31T19:00:03;1.80;;;1.27;;
1164;SDS011;571;50.930;6.926;2023-07-31T19:03:18;1.80;;;1.30;;
1164;SDS011;571;50.930;6.926;2023-07-31T19:06:19;1.57;;;1.40;;
1164;SDS011;571;50.930;6.926;2023-07-31T19:12:30;2.70;;;1.23;;
1164;SDS011;571;50.930;6.926;2023-07-31T19:12:57;3.63;;;1.67;;
1164;SDS011;571;50.930;6.926;2023-07-31T19:15:51;1.53;;;1.10;;
1164;SDS011;571;50.930;6.926;2023-07-31T19:19:06;4.73;;;1.30;;
1164;SDS011;571;50.930;6.926;2023-07-31T19:21:58;2.60;;;1.33;;
1164;SDS011;571;50.930;6.926;2023-07-31T19:24:56;3.27;;;1.50;;
1164;SDS011;571;50.930;6.926;2023-07-31T19:30:59;1.30;;;0.83;;
1164;SDS011;571;50.930;6.926;2023-07-31T19:33:46;2.20;;;1.17;;
1164;SDS011;571;50.930;6.926;2023-07-31T19:39:50;1.77;;;0.90;;
1164;SDS011;571;50.930;6.926;2023-07-31T19:43:19;0.97;;;0.70;;
1164;SDS011;571;50.930;6.926;2023-07-31T19:53:01;1.30;;;0.80;;
1164;SDS011;571;50.930;6.926;2023-07-31T19:55:49;1.00;;;0.80;;
1164;SDS011;571;50.930;6.926;2023-07-31T19:59:01;2.50;;;1.10;;
1164;SDS011;571;50.930;6.926;2023-07-31T20:02:07;1.40;;;1.03;;
1164;SDS011;571;50.930;6.926;2023-07-31T20:07:57;1.50;;;0.80;;
1164;SDS011;571;50.930;6.926;2023-07-31T20:11:18;1.33;;;0.77;;
1164;SDS011;571;50.930;6.926;2023-07-31T20:14:21;0.90;;;0.70;;
1164;SDS011;571;50.930;6.926;2023-07-31T20:20:12;0.90;;;0.63;;
1164;SDS011;571;50.930;6.926;2023-07-31T20:29:27;2.80;;;0.80;;
1164;SDS011;571;50.930;6.926;2023-07-31T20:32:29;2.17;;;0.87;;
1164;SDS011;571;50.930;6.926;2023-07-31T20:35:21;1.03;;;0.80;;
1164;SDS011;571;50.930;6.926;2023-07-31T20:37:54;1.10;;;1.00;;
1164;SDS011;571;50.930;6.926;2023-07-31T20:40:53;2.27;;;0.90;;
1164;SDS011;571;50.930;6.926;2023-07-31T20:43:52;1.40;;;0.80;;
1164;SDS011;571;50.930;6.926;2023-07-31T20:46:22;1.87;;;0.73;;
1164;SDS011;571;50.930;6.926;2023-07-31T20:49:08;0.63;;;0.53;;
1164;SDS011;571;50.930;6.926;2023-07-31T20:51:56;2.33;;;0.70;;
1164;SDS011;571;50.930;6.926;2023-07-31T20:54:27;1.17;;;0.70;;
1164;SDS011;571;50.930;6.926;2023-07-31T20:56:54;1.27;;;0.60;;
1164;SDS011;571;50.930;6.926;2023-07-31T20:59:34;3.13;;;0.93;;
1164;SDS011;571;50.930;6.926;2023-07-31T21:02:18;1.53;;;1.03;;
1164;SDS011;571;50.930;6.926;2023-07-31T21:04:56;1.63;;;0.90;;
1164;SDS011;571;50.930;6.926;2023-07-31T21:07:23;1.90;;;1.10;;
1164;SDS011;571;50.930;6.926;2023-07-31T21:09:50;1.87;;;0.97;;
1164;SDS011;571;50.930;6.926;2023-07-31T21:12:17;1.27;;;0.83;;
1164;SDS011;571;50.930;6.926;2023-07-31T21:14:46;1.00;;;0.70;;
1164;SDS011;571;50.930;6.926;2023-07-31T21:17:16;1.53;;;0.70;;
1164;SDS011;571;50.930;6.926;2023-07-31T21:19:45;1.07;;;0.70;;
1164;SDS011;571;50.930;6.926;2023-07-31T21:22:17;1.30;;;0.67;;
1164;SDS011;571;50.930;6.926;2023-07-31T21:24:52;4.00;;;1.03;;
1164;SDS011;571;50.930;6.926;2023-07-31T21:27:24;1.87;;;0.70;;
1164;SDS011;571;50.930;6.926;2023-07-31T21:29:58;1.17;;;0.60;;
1164;SDS011;571;50.930;6.926;2023-07-31T21:32:29;1.20;;;0.70;;
1164;SDS011;571;50.930;6.926;2023-07-31T21:34:57;2.20;;;0.83;;
1164;SDS011;571;50.930;6.926;2023-07-31T21:37:26;1.97;;;0.83;;
1164;SDS011;571;50.930;6.926;2023-07-31T21:40:05;1.20;;;0.90;;
1164;SDS011;571;50.930;6.926;2023-07-31T21:42:37;3.00;;;0.80;;
1164;SDS011;571;50.930;6.926;2023-07-31T21:45:05;2.00;;;0.70;;
1164;SDS011;571;50.930;6.926;2023-07-31T21:47:33;2.10;;;0.90;;
1164;SDS011;571;50.930;6.926;2023-07-31T21:50:08;1.63;;;1.53;;
1164;SDS011;571;50.930;6.926;2023-07-31T21:52:51;1.00;;;0.70;;
1164;SDS011;571;50.930;6.926;2023-07-31T21:55:25;2.83;;;0.83;;
1164;SDS011;571;50.930;6.926;2023-07-31T21:57:59;11.93;;;1.27;;
1164;SDS011;571;50.930;6.926;2023-07-31T22:51:13;1.77;;;0.80;;
1164;SDS011;571;50.930;6.926;2023-07-31T22:53:40;1.70;;;0.73;;
1164;SDS011;571;50.930;6.926;2023-07-31T22:56:07;1.40;;;1.03;;
1164;SDS011;571;50.930;6.926;2023-07-31T22:58:34;2.27;;;0.80;;
1164;SDS011;571;50.930;6.926;2023-07-31T23:01:02;4.93;;;0.93;;
1164;SDS011;571;50.930;6.926;2023-07-31T23:03:29;5.70;;;1.00;;
1164;SDS011;571;50.930;6.926;2023-07-31T23:05:59;2.00;;;0.80;;
1164;SDS011;571;50.930;6.926;2023-07-31T23:08:28;1.83;;;1.00;;
1164;SDS011;571;50.930;6.926;2023-07-31T23:10:57;2.60;;;1.70;;
1164;SDS011;571;50.930;6.926;2023-07-31T23:13:27;1.70;;;0.77;;
1164;SDS011;571;50.930;6.926;2023-07-31T23:16:00;1.37;;;1.00;;
1164;SDS011;571;50.930;6.926;2023-07-31T23:18:29;1.57;;;0.90;;
1164;SDS011;571;50.930;6.926;2023-07-31T23:20:58;2.30;;;1.30;;
1164;SDS011;571;50.930;6.926;2023-07-31T23:23:25;2.10;;;1.17;;
1164;SDS011;571;50.930;6.926;2023-07-31T23:25:55;1.67;;;0.90;;
1164;SDS011;571;50.930;6.926;2023-07-31T23:28:26;1.13;;;0.80;;
1164;SDS011;571;50.930;6.926;2023-07-31T23:31:00;1.73;;;1.10;;
1164;SDS011;571;50.930;6.926;2023-07-31T23:33:32;1.10;;;0.93;;
1164;SDS011;571;50.930;6.926;2023-07-31T23:36:06;1.73;;;0.70;;
1164;SDS011;571;50.930;6.926;2023-07-31T23:38:37;1.10;;;0.80;;
1164;SDS011;571;50.930;6.926;2023-07-31T23:41:09;0.87;;;0.87;;
1164;SDS011;571;50.930;6.926;2023-07-31T23:43:46;4.10;;;1.10;;
1164;SDS011;571;50.930;6.926;2023-07-31T23:46:19;1.47;;;0.80;;
1164;SDS011;571;50.930;6.926;2023-07-31T23:48:48;1.17;;;0.67;;
1164;SDS011;571;50.930;6.926;2023-07-31T23:51:20;1.90;;;0.80;;
1164;SDS011;571;50.930;6.926;2023-07-31T23:53:49;1.00;;;0.70;;
1164;SDS011;571;50.930;6.926;2023-07-31T23:56:16;1.30;;;0.90;;
1164;SDS011;571;50.930;6.926;2023-07-31T23:58:48;1.57;;;0.83;;
